Time;durP1;ratioP1;P1;durP2;ratioP2;P2;SDS_P1;SDS_P2;PMS_P1;PMS_P2;Temp;Humidity;BMP_temperature;BMP_pressure;BME280_temperature;BME280_humidity;BME280_pressure;Samples;Min_cycle;Max_cycle;Signal;HPM_P1;HPM_P2
2021/06/07 00:01:04;;;;;;;8.63;5.37;;;15.40;99.90;;;;;;5011828;28;20508;-57
2021/06/07 00:03:31;;;;;;;7.93;5.30;;;15.40;99.90;;;;;;5011600;28;20457;-57
2021/06/07 00:05:57;;;;;;;7.47;5.50;;;15.40;99.90;;;;;;5012353;28;20539;-56
2021/06/07 00:08:26;;;;;;;7.30;5.50;;;15.50;99.90;;;;;;4993234;28;21018;-57
2021/06/07 00:10:52;;;;;;;6.63;5.53;;;15.50;99.90;;;;;;5006228;28;20466;-57
2021/06/07 00:13:20;;;;;;;6.33;5.40;;;15.50;99.90;;;;;;5012159;28;20943;-56
2021/06/07 00:15:47;;;;;;;7.77;6.03;;;15.50;99.90;;;;;;5011958;28;20547;-57
2021/06/07 00:18:15;;;;;;;7.60;5.90;;;15.50;99.90;;;;;;5012587;28;20481;-56
2021/06/07 00:20:47;;;;;;;8.40;6.80;;;15.50;99.90;;;;;;5011586;28;20910;-56
2021/06/07 00:23:14;;;;;;;8.70;6.60;;;15.50;99.90;;;;;;5011468;28;20501;-57
2021/06/07 00:25:43;;;;;;;7.03;6.13;;;15.50;99.90;;;;;;5010931;28;20472;-57
2021/06/07 00:28:10;;;;;;;10.10;6.53;;;15.50;99.90;;;;;;5011919;28;20473;-57
2021/06/07 00:30:37;;;;;;;8.50;6.70;;;15.50;99.90;;;;;;5011534;28;20464;-57
2021/06/07 00:33:04;;;;;;;8.33;6.43;;;15.50;99.90;;;;;;5011553;28;20450;-57
2021/06/07 00:35:31;;;;;;;9.20;6.70;;;15.50;99.90;;;;;;5011963;28;20458;-57
2021/06/07 00:37:58;;;;;;;10.77;7.67;;;15.50;99.90;;;;;;5011868;28;20861;-57
2021/06/07 00:40:26;;;;;;;7.63;5.90;;;15.50;99.90;;;;;;5012015;28;20453;-57
2021/06/07 00:42:54;;;;;;;7.80;5.77;;;15.40;99.90;;;;;;5011568;28;20453;-57
2021/06/07 00:45:23;;;;;;;8.30;6.07;;;15.40;99.90;;;;;;5011381;28;21066;-57
2021/06/07 00:47:51;;;;;;;8.27;6.27;;;15.50;99.90;;;;;;5012035;28;20962;-57
2021/06/07 00:50:24;;;;;;;9.43;6.47;;;15.50;99.90;;;;;;5011324;28;20456;-57
2021/06/07 00:53:03;;;;;;;8.10;5.70;;;15.50;99.90;;;;;;5011324;28;20499;-57
2021/06/07 00:55:35;;;;;;;7.43;5.33;;;15.50;99.90;;;;;;5011719;28;20483;-57
2021/06/07 00:58:04;;;;;;;10.90;5.60;;;15.50;99.90;;;;;;5011559;28;20484;-57
2021/06/07 01:00:31;;;;;;;9.17;6.07;;;15.50;99.90;;;;;;5011631;28;20971;-57
2021/06/07 01:02:59;;;;;;;12.80;6.30;;;15.50;99.90;;;;;;5010024;28;20845;-57
2021/06/07 01:05:27;;;;;;;9.03;6.10;;;15.40;99.90;;;;;;5004649;28;20461;-58
2021/06/07 01:07:54;;;;;;;8.33;6.27;;;15.40;99.90;;;;;;5011665;28;20461;-56
2021/06/07 01:10:21;;;;;;;9.40;6.47;;;15.40;99.90;;;;;;5011978;28;20445;-57
2021/06/07 01:12:47;;;;;;;8.70;6.67;;;15.40;99.90;;;;;;5006657;28;20858;-57
2021/06/07 01:15:16;;;;;;;9.33;6.30;;;15.50;99.90;;;;;;5011997;28;20457;-57
2021/06/07 01:17:43;;;;;;;8.70;6.00;;;15.40;99.90;;;;;;5011061;28;20493;-57
2021/06/07 01:20:13;;;;;;;8.50;6.20;;;15.40;99.90;;;;;;5011119;28;20596;-57
2021/06/07 01:22:42;;;;;;;8.50;6.07;;;15.40;99.90;;;;;;5011381;28;20992;-56
2021/06/07 01:25:12;;;;;;;8.10;6.33;;;15.30;99.90;;;;;;5011359;28;20446;-56
2021/06/07 01:27:39;;;;;;;8.30;6.03;;;15.40;99.90;;;;;;5011861;28;20472;-57
2021/06/07 01:30:09;;;;;;;7.37;6.07;;;15.40;99.90;;;;;;5011078;28;20454;-57
2021/06/07 01:32:35;;;;;;;7.40;5.80;;;15.40;99.90;;;;;;5010760;28;20458;-56
2021/06/07 01:35:03;;;;;;;8.10;6.07;;;15.30;99.90;;;;;;5011111;28;20453;-56
2021/06/07 01:37:29;;;;;;;7.27;5.33;;;15.40;99.90;;;;;;5011564;28;20492;-57
2021/06/07 01:39:57;;;;;;;5.40;4.53;;;15.40;99.90;;;;;;4995956;28;20949;-56
2021/06/07 01:42:23;;;;;;;5.30;4.10;;;15.30;99.90;;;;;;5014686;28;20476;-57
2021/06/07 01:44:50;;;;;;;4.60;3.83;;;15.30;99.90;;;;;;5014963;28;20523;-56
2021/06/07 01:47:16;;;;;;;4.77;3.30;;;15.30;99.90;;;;;;5015108;28;20470;-56
2021/06/07 01:49:44;;;;;;;3.40;3.00;;;15.30;99.90;;;;;;5014782;28;20449;-56
2021/06/07 01:52:10;;;;;;;4.00;2.87;;;15.30;99.90;;;;;;5014727;28;20460;-57
2021/06/07 01:54:37;;;;;;;3.30;2.93;;;15.30;99.90;;;;;;5014654;28;20460;-56
2021/06/07 01:57:06;;;;;;;4.13;3.37;;;15.30;99.90;;;;;;5014640;28;20476;-56
2021/06/07 01:59:33;;;;;;;3.43;3.10;;;15.20;99.90;;;;;;5014682;28;20507;-57
2021/06/07 02:01:59;;;;;;;3.13;2.83;;;15.20;99.90;;;;;;5014034;28;20449;-57
2021/06/07 02:04:26;;;;;;;2.23;2.10;;;15.20;99.90;;;;;;5014570;28;20445;-56
2021/06/07 02:06:52;;;;;;;2.33;2.10;;;15.20;99.90;;;;;;5013637;28;21016;-56
2021/06/07 02:09:19;;;;;;;3.17;2.10;;;15.20;99.90;;;;;;5014995;28;20450;-56
2021/06/07 02:11:45;;;;;;;2.60;2.40;;;15.20;99.90;;;;;;5013946;28;20461;-57
2021/06/07 02:14:13;;;;;;;2.20;2.03;;;15.20;99.90;;;;;;5014694;28;20476;-57
2021/06/07 02:16:40;;;;;;;1.73;1.63;;;15.10;99.90;;;;;;5013924;28;20864;-57
2021/06/07 02:19:09;;;;;;;2.17;1.93;;;15.10;99.90;;;;;;5014388;28;20484;-57
2021/06/07 02:21:37;;;;;;;1.90;1.47;;;15.10;99.90;;;;;;5014015;28;20469;-57
2021/06/07 02:24:05;;;;;;;2.53;1.77;;;15.20;99.90;;;;;;5014922;28;20480;-57
2021/06/07 02:26:33;;;;;;;2.60;2.40;;;15.20;99.90;;;;;;5014311;28;20556;-57
2021/06/07 02:29:02;;;;;;;3.80;3.07;;;15.20;99.90;;;;;;5014400;28;20453;-56
2021/06/07 02:31:31;;;;;;;5.60;4.00;;;15.20;99.90;;;;;;5022993;28;20452;-56
2021/06/07 02:33:59;;;;;;;4.70;3.40;;;15.10;99.90;;;;;;5014020;28;20450;-57
2021/06/07 02:36:30;;;;;;;4.30;3.40;;;15.10;99.90;;;;;;5013634;28;20475;-56
2021/06/07 02:38:57;;;;;;;3.40;2.97;;;15.00;99.90;;;;;;5014646;28;20489;-56
2021/06/07 02:41:25;;;;;;;2.90;2.60;;;15.10;99.90;;;;;;5013539;28;21014;-56
2021/06/07 02:43:52;;;;;;;5.33;2.80;;;15.00;99.90;;;;;;5013689;28;20454;-57
2021/06/07 02:46:20;;;;;;;3.03;2.70;;;15.10;99.90;;;;;;5013431;28;20481;-57
2021/06/07 02:48:48;;;;;;;9.03;2.40;;;15.10;99.90;;;;;;5013514;28;20445;-57
2021/06/07 02:51:15;;;;;;;2.33;2.13;;;15.10;99.90;;;;;;5013088;28;20457;-56
2021/06/07 02:53:42;;;;;;;3.93;3.23;;;15.10;99.90;;;;;;5013859;28;20449;-56
2021/06/07 02:56:10;;;;;;;4.00;2.90;;;15.00;99.90;;;;;;5013429;28;20478;-57
2021/06/07 02:58:37;;;;;;;2.67;2.47;;;15.10;99.90;;;;;;5013013;28;20484;-57
2021/06/07 03:01:07;;;;;;;6.70;3.53;;;15.00;99.90;;;;;;5012920;28;20528;-57
2021/06/07 03:03:34;;;;;;;2.30;2.10;;;14.90;99.90;;;;;;5012644;28;20895;-56
2021/06/07 03:06:04;;;;;;;3.07;2.23;;;14.90;99.90;;;;;;5013318;28;20849;-56
2021/06/07 03:08:32;;;;;;;4.97;2.00;;;14.90;99.90;;;;;;5013570;28;20450;-56
2021/06/07 03:11:01;;;;;;;5.50;2.40;;;15.00;99.90;;;;;;5013294;28;20982;-57
2021/06/07 03:13:28;;;;;;;2.90;2.37;;;15.00;99.90;;;;;;5013008;28;20454;-56
2021/06/07 03:15:56;;;;;;;3.03;2.40;;;14.90;99.90;;;;;;5020229;28;20484;-56
2021/06/07 03:18:23;;;;;;;4.60;3.07;;;14.80;99.90;;;;;;5027035;28;21006;-56
2021/06/07 03:20:50;;;;;;;5.20;2.90;;;14.70;99.90;;;;;;5013718;28;20454;-56
2021/06/07 03:23:20;;;;;;;4.90;3.20;;;14.80;99.90;;;;;;5012624;28;20523;-57
2021/06/07 03:25:49;;;;;;;3.93;2.27;;;14.70;99.90;;;;;;5013516;28;20461;-56
2021/06/07 03:28:17;;;;;;;3.90;2.50;;;14.70;99.90;;;;;;5013048;28;20476;-57
2021/06/07 03:30:45;;;;;;;2.13;1.90;;;14.70;99.90;;;;;;5013479;28;20882;-56
2021/06/07 03:33:12;;;;;;;3.40;2.23;;;14.70;99.90;;;;;;5012275;28;20836;-57
2021/06/07 03:35:42;;;;;;;2.53;2.33;;;14.60;99.90;;;;;;5012747;28;20453;-56
2021/06/07 03:38:09;;;;;;;5.23;2.07;;;14.60;99.90;;;;;;5013024;28;20485;-57
2021/06/07 03:40:38;;;;;;;3.30;2.30;;;14.60;99.90;;;;;;5013191;28;20486;-57
2021/06/07 03:43:06;;;;;;;2.20;2.10;;;14.60;99.90;;;;;;5012671;28;20468;-56
2021/06/07 03:45:34;;;;;;;2.10;1.90;;;14.70;99.90;;;;;;5012896;28;20500;-57
2021/06/07 03:48:01;;;;;;;1.40;1.30;;;14.70;99.90;;;;;;5013229;28;20449;-57
2021/06/07 03:50:29;;;;;;;1.67;1.57;;;14.70;99.90;;;;;;5012980;28;21205;-57
2021/06/07 03:52:56;;;;;;;1.80;1.10;;;14.60;99.90;;;;;;5012190;28;20835;-57
2021/06/07 03:55:25;;;;;;;1.30;1.20;;;14.60;99.90;;;;;;5012857;28;20449;-57
2021/06/07 03:57:55;;;;;;;1.50;1.40;;;14.60;99.90;;;;;;5013022;28;20536;-57
2021/06/07 04:00:23;;;;;;;2.03;1.40;;;14.60;99.90;;;;;;5013009;28;20511;-57
2021/06/07 04:02:50;;;;;;;1.70;1.60;;;14.50;99.90;;;;;;5012114;28;20868;-57
2021/06/07 04:05:17;;;;;;;1.73;1.63;;;14.50;99.90;;;;;;5011907;28;20963;-56
2021/06/07 04:07:44;;;;;;;2.00;1.50;;;14.50;99.90;;;;;;5012138;28;20557;-56
2021/06/07 04:10:13;;;;;;;2.00;1.37;;;14.60;99.90;;;;;;5011218;28;20955;-57
2021/06/07 04:12:40;;;;;;;1.27;1.17;;;14.50;99.90;;;;;;4996333;28;20497;-57
2021/06/07 04:15:10;;;;;;;2.00;1.33;;;14.50;99.90;;;;;;4992980;28;20450;-57
2021/06/07 04:17:37;;;;;;;2.60;1.60;;;14.60;99.90;;;;;;5031462;22;20608;-50
2021/06/07 04:20:05;;;;;;;1.40;1.17;;;14.60;99.90;;;;;;5012344;28;20453;-49
2021/06/07 04:22:32;;;;;;;1.10;1.00;;;14.60;99.90;;;;;;5012139;28;20465;-50
2021/06/07 04:24:58;;;;;;;1.43;1.07;;;14.70;99.90;;;;;;5009585;28;20453;-51
2021/06/07 04:27:25;;;;;;;1.33;1.20;;;14.70;99.90;;;;;;5011341;28;20847;-51
2021/06/07 04:29:51;;;;;;;1.73;1.20;;;14.80;99.90;;;;;;5012293;28;20456;-51
2021/06/07 04:32:19;;;;;;;1.20;1.07;;;14.80;99.90;;;;;;5011774;28;20520;-50
2021/06/07 04:34:46;;;;;;;1.57;0.80;;;14.80;99.90;;;;;;5011811;28;20458;-50
2021/06/07 04:37:13;;;;;;;1.20;0.90;;;14.70;99.90;;;;;;5011924;28;20481;-51
2021/06/07 04:39:39;;;;;;;2.30;1.10;;;14.70;99.90;;;;;;5012169;28;20481;-52
2021/06/07 04:42:07;;;;;;;1.20;1.10;;;14.70;99.90;;;;;;5011525;28;20465;-50
2021/06/07 04:44:34;;;;;;;0.70;0.70;;;14.80;99.90;;;;;;5011101;28;20490;-50
2021/06/07 04:47:00;;;;;;;1.03;0.80;;;14.70;99.90;;;;;;5010837;28;20474;-50
2021/06/07 04:49:28;;;;;;;1.13;1.03;;;14.70;99.90;;;;;;5011787;28;20823;-50
2021/06/07 04:51:55;;;;;;;1.90;1.10;;;14.70;99.90;;;;;;5010201;28;20461;-51
2021/06/07 04:54:21;;;;;;;1.13;1.03;;;14.70;99.90;;;;;;4995301;28;21149;-51
2021/06/07 04:56:48;;;;;;;1.00;0.90;;;14.80;99.90;;;;;;5000639;28;20523;-50
2021/06/07 04:59:14;;;;;;;2.73;0.77;;;14.80;99.90;;;;;;5003937;28;20492;-49
2021/06/07 05:01:40;;;;;;;1.00;0.80;;;14.80;99.90;;;;;;5011499;28;20453;-50
2021/06/07 05:04:08;;;;;;;1.20;1.10;;;14.70;99.90;;;;;;5001749;28;20454;-49
2021/06/07 05:06:36;;;;;;;3.63;1.40;;;14.80;99.90;;;;;;5010971;28;20986;-50
2021/06/07 05:09:03;;;;;;;0.90;0.90;;;14.90;99.90;;;;;;5011009;28;20449;-52
2021/06/07 05:11:29;;;;;;;1.13;1.00;;;14.90;99.90;;;;;;4999798;28;20462;-51
2021/06/07 05:13:56;;;;;;;2.60;1.30;;;15.00;99.90;;;;;;5010366;28;20465;-50
2021/06/07 05:16:22;;;;;;;1.10;1.00;;;14.90;99.90;;;;;;5007691;28;20482;-50
2021/06/07 05:18:49;;;;;;;1.57;1.47;;;14.90;99.90;;;;;;5015374;28;20539;-50
2021/06/07 05:21:15;;;;;;;2.03;1.77;;;15.00;99.90;;;;;;5016030;28;20452;-50
2021/06/07 05:23:44;;;;;;;1.10;1.10;;;14.90;99.90;;;;;;5014148;28;20962;-50
2021/06/07 05:26:12;;;;;;;1.40;1.20;;;14.90;99.90;;;;;;5012064;28;20453;-51
2021/06/07 05:28:39;;;;;;;2.33;1.13;;;14.90;99.90;;;;;;5015204;28;20951;-52
2021/06/07 05:31:05;;;;;;;3.93;1.13;;;15.00;99.90;;;;;;5014255;28;20465;-51
2021/06/07 05:33:33;;;;;;;1.67;1.23;;;15.00;99.90;;;;;;5013758;28;20449;-50
2021/06/07 05:35:59;;;;;;;1.37;1.10;;;15.00;99.90;;;;;;5013802;28;20457;-52
2021/06/07 05:38:26;;;;;;;0.83;0.83;;;15.00;99.90;;;;;;5008152;28;20489;-49
2021/06/07 05:40:55;;;;;;;2.93;1.23;;;15.10;99.90;;;;;;5012909;28;20450;-50
2021/06/07 05:43:23;;;;;;;1.57;1.23;;;15.20;99.90;;;;;;5003584;28;20975;-51
2021/06/07 05:45:51;;;;;;;1.80;1.20;;;15.20;99.90;;;;;;5013561;28;20537;-51
2021/06/07 05:48:17;;;;;;;1.20;1.10;;;15.10;99.90;;;;;;5011957;28;20917;-50
2021/06/07 05:50:45;;;;;;;2.77;1.50;;;15.20;99.90;;;;;;5007186;28;20958;-51
2021/06/07 05:53:12;;;;;;;1.00;0.90;;;15.30;99.90;;;;;;4995474;28;20485;-50
2021/06/07 05:55:40;;;;;;;1.87;1.13;;;15.30;99.90;;;;;;5006576;28;20456;-50
2021/06/07 05:58:11;;;;;;;1.10;0.90;;;15.40;99.90;;;;;;5034717;28;20480;-50
2021/06/07 06:00:41;;;;;;;2.40;1.10;;;15.60;99.90;;;;;;5017523;28;20445;-51
2021/06/07 06:03:08;;;;;;;1.67;0.83;;;15.60;99.90;;;;;;5014922;28;20499;-49
2021/06/07 06:05:35;;;;;;;1.23;0.90;;;15.60;99.90;;;;;;5014855;28;20449;-50
2021/06/07 06:08:03;;;;;;;1.30;1.20;;;15.70;99.90;;;;;;5014830;28;20842;-50
2021/06/07 06:10:30;;;;;;;1.20;1.10;;;15.70;99.90;;;;;;5013803;28;20473;-51
2021/06/07 06:12:57;;;;;;;9.73;1.40;;;15.80;99.90;;;;;;5022155;28;20461;-50
2021/06/07 06:15:25;;;;;;;3.00;1.20;;;15.90;99.90;;;;;;5014769;28;20476;-51
2021/06/07 06:17:52;;;;;;;2.63;1.10;;;16.00;99.90;;;;;;5013390;28;20489;-51
2021/06/07 06:20:19;;;;;;;1.63;1.00;;;16.30;99.90;;;;;;5008335;28;20445;-51
2021/06/07 06:22:46;;;;;;;1.03;0.93;;;16.50;99.90;;;;;;5004114;28;20458;-51
2021/06/07 06:25:15;;;;;;;0.90;0.80;;;16.70;99.90;;;;;;4997472;28;20447;-50
2021/06/07 06:27:43;;;;;;;2.92;0.98;;;17.20;99.90;;;;;;5006254;28;20941;-51
2021/06/07 06:30:15;;;;;;;2.13;1.63;;;17.50;99.90;;;;;;5004611;28;20210;-50
2021/06/07 06:32:44;;;;;;;2.00;1.10;;;17.90;99.90;;;;;;5014116;28;20524;-50
2021/06/07 06:35:12;;;;;;;1.30;1.13;;;18.30;99.90;;;;;;5014273;28;20545;-51
2021/06/07 06:37:40;;;;;;;3.00;0.80;;;18.30;99.90;;;;;;5013593;28;20995;-51
2021/06/07 06:40:08;;;;;;;3.50;1.13;;;18.60;99.90;;;;;;5012778;28;20477;-50
2021/06/07 06:42:35;;;;;;;2.70;0.80;;;19.20;99.90;;;;;;5002267;28;20860;-51
2021/06/07 06:45:03;;;;;;;2.90;1.10;;;19.70;99.90;;;;;;5002194;28;20477;-51
2021/06/07 06:47:30;;;;;;;1.90;1.00;;;20.30;99.90;;;;;;5015793;28;20481;-50
2021/06/07 06:49:58;;;;;;;1.23;1.10;;;20.40;99.90;;;;;;5012413;28;20457;-51
2021/06/07 06:52:25;;;;;;;0.90;0.70;;;20.50;99.90;;;;;;5004898;28;20441;-51
2021/06/07 06:54:51;;;;;;;1.30;0.90;;;20.60;99.90;;;;;;5005671;28;20524;-50
2021/06/07 06:57:18;;;;;;;4.70;1.00;;;20.60;99.90;;;;;;5008227;28;20462;-50
2021/06/07 06:59:44;;;;;;;1.33;0.90;;;20.90;99.90;;;;;;5013778;28;20535;-52
2021/06/07 07:02:12;;;;;;;0.83;0.83;;;21.40;99.90;;;;;;5006892;28;20804;-52
2021/06/07 07:04:39;;;;;;;4.20;1.10;;;22.30;99.90;;;;;;5003759;28;20476;-52
2021/06/07 07:07:07;;;;;;;1.00;0.90;;;23.00;99.90;;;;;;4997534;28;20478;-50
2021/06/07 07:09:33;;;;;;;1.17;1.07;;;22.90;99.90;;;;;;5006223;28;20462;-52
2021/06/07 07:12:00;;;;;;;0.80;0.80;;;23.60;99.90;;;;;;5009119;28;20456;-50
2021/06/07 07:14:26;;;;;;;1.10;1.00;;;24.20;99.90;;;;;;5013340;28;20835;-51
2021/06/07 07:16:53;;;;;;;0.80;0.80;;;24.20;99.90;;;;;;5013375;28;20535;-50
2021/06/07 07:19:20;;;;;;;2.90;1.03;;;23.60;99.90;;;;;;5013163;28;20485;-51
2021/06/07 07:21:47;;;;;;;1.47;1.37;;;23.00;99.90;;;;;;5012744;28;20536;-51
2021/06/07 07:24:15;;;;;;;1.30;1.20;;;22.90;99.90;;;;;;5013207;28;20457;-53
2021/06/07 07:26:41;;;;;;;1.07;1.07;;;22.70;99.90;;;;;;5012556;28;20547;-51
2021/06/07 07:29:09;;;;;;;1.30;1.20;;;22.50;99.90;;;;;;5002688;28;20501;-51
2021/06/07 07:31:35;;;;;;;1.27;1.17;;;22.40;99.90;;;;;;4993347;28;20508;-51
2021/06/07 07:34:02;;;;;;;2.00;1.30;;;22.10;99.90;;;;;;5010288;28;20449;-51
2021/06/07 07:36:32;;;;;;;1.10;1.10;;;22.10;99.90;;;;;;5012535;28;20524;-50
2021/06/07 07:38:58;;;;;;;2.10;1.20;;;22.30;99.90;;;;;;5012728;28;20481;-51
2021/06/07 07:41:27;;;;;;;1.63;1.13;;;21.90;99.90;;;;;;5012648;28;20449;-50
2021/06/07 07:43:54;;;;;;;1.60;1.23;;;21.60;99.90;;;;;;5012934;28;20468;-51
2021/06/07 07:46:20;;;;;;;1.30;1.20;;;21.40;99.90;;;;;;4994548;28;20567;-51
2021/06/07 07:48:47;;;;;;;3.23;1.10;;;21.60;99.90;;;;;;5000966;28;20446;-50
2021/06/07 07:51:13;;;;;;;1.73;0.90;;;22.10;99.90;;;;;;5012936;28;20449;-51
2021/06/07 07:53:40;;;;;;;1.10;1.00;;;22.40;99.90;;;;;;5012654;28;20880;-51
2021/06/07 07:56:07;;;;;;;1.63;0.90;;;23.00;99.90;;;;;;5012603;28;20449;-51
2021/06/07 07:58:35;;;;;;;0.93;0.90;;;23.90;99.90;;;;;;5012147;28;20484;-51
2021/06/07 08:01:02;;;;;;;0.80;0.80;;;24.50;99.90;;;;;;5012392;28;20461;-50
2021/06/07 08:03:28;;;;;;;0.93;0.93;;;24.60;99.90;;;;;;5012330;28;20456;-51
2021/06/07 08:05:55;;;;;;;1.57;0.90;;;24.10;99.90;;;;;;5012216;28;20540;-50
2021/06/07 08:08:21;;;;;;;1.00;0.90;;;23.80;99.90;;;;;;5012620;28;20449;-51
2021/06/07 08:10:49;;;;;;;1.07;0.97;;;23.90;99.90;;;;;;5012192;28;20508;-53
2021/06/07 08:13:16;;;;;;;1.40;1.30;;;23.90;99.90;;;;;;5012158;28;20454;-51
2021/06/07 08:15:43;;;;;;;1.20;0.80;;;23.70;99.90;;;;;;5011721;28;20461;-53
2021/06/07 08:18:10;;;;;;;1.27;1.00;;;23.70;99.90;;;;;;5012040;28;20648;-51
2021/06/07 08:20:36;;;;;;;1.23;1.00;;;23.50;99.90;;;;;;5012068;28;20484;-51
2021/06/07 08:23:03;;;;;;;1.57;1.20;;;23.40;99.90;;;;;;5011739;28;20481;-51
2021/06/07 08:25:30;;;;;;;3.50;1.57;;;23.00;99.90;;;;;;5011151;28;21015;-50
2021/06/07 08:27:56;;;;;;;0.80;0.80;;;22.80;99.90;;;;;;5011964;28;20469;-52
2021/06/07 08:30:24;;;;;;;1.43;0.80;;;22.50;99.90;;;;;;5011434;28;20455;-50
2021/06/07 08:32:52;;;;;;;1.10;1.00;;;22.50;99.90;;;;;;5011728;28;20460;-50
2021/06/07 08:35:18;;;;;;;1.30;1.20;;;22.50;99.90;;;;;;5011687;28;20484;-50
2021/06/07 08:37:45;;;;;;;1.37;0.80;;;22.30;99.90;;;;;;5012064;28;20469;-51
2021/06/07 08:40:15;;;;;;;0.80;0.60;;;22.10;99.90;;;;;;5011568;28;20449;-51
2021/06/07 08:42:42;;;;;;;0.90;0.70;;;22.50;99.90;;;;;;5011095;28;20986;-50
2021/06/07 08:45:12;;;;;;;3.17;0.60;;;22.70;99.90;;;;;;5011086;28;20472;-50
2021/06/07 08:47:40;;;;;;;0.70;0.67;;;23.30;99.90;;;;;;4991649;28;20838;-51
2021/06/07 08:50:10;;;;;;;1.00;0.60;;;23.60;99.90;;;;;;5001087;28;20448;-51
2021/06/07 08:52:37;;;;;;;0.80;0.70;;;24.80;99.90;;;;;;5011538;28;20951;-52
2021/06/07 08:55:05;;;;;;;1.17;0.90;;;25.60;99.90;;;;;;5006588;28;20453;-50
2021/06/07 08:57:39;;;;;;;1.03;0.70;;;25.80;99.90;;;;;;5010842;28;20858;-51
2021/06/07 09:00:07;;;;;;;0.60;0.60;;;25.90;99.90;;;;;;5011509;28;20481;-52
2021/06/07 09:02:35;;;;;;;0.83;0.73;;;26.10;99.90;;;;;;5010888;28;20449;-52
2021/06/07 09:05:04;;;;;;;0.90;0.70;;;25.30;99.90;;;;;;5011372;28;20446;-51
2021/06/07 09:07:33;;;;;;;0.90;0.80;;;24.50;99.90;;;;;;5011124;28;20501;-52
2021/06/07 09:10:11;;;;;;;0.67;0.67;;;24.00;99.90;;;;;;5011119;28;20835;-51
2021/06/07 09:12:38;;;;;;;0.80;0.80;;;24.50;99.90;;;;;;5011291;28;20521;-51
2021/06/07 09:15:05;;;;;;;0.93;0.77;;;25.00;99.90;;;;;;5011145;28;20869;-51
2021/06/07 09:17:32;;;;;;;1.50;1.20;;;25.30;99.90;;;;;;5011132;28;20489;-50
2021/06/07 09:20:14;;;;;;;1.77;1.40;;;25.30;99.90;;;;;;5011268;28;20477;-50
2021/06/07 09:22:48;;;;;;;2.27;1.47;;;23.80;99.90;;;;;;5010622;28;20828;-51
2021/06/07 09:25:16;;;;;;;1.30;1.20;;;22.50;99.90;;;;;;5010873;28;20480;-51
2021/06/07 09:28:01;;;;;;;2.03;1.33;;;22.30;99.90;;;;;;5006936;28;20482;-50
2021/06/07 09:30:30;;;;;;;1.63;1.07;;;22.00;99.90;;;;;;5010815;28;20451;-50
2021/06/07 09:33:19;;;;;;;1.63;1.30;;;22.00;99.90;;;;;;5011060;28;20457;-51
2021/06/07 09:35:49;;;;;;;1.20;1.10;;;21.60;99.90;;;;;;5010862;28;20453;-49
2021/06/07 09:38:17;;;;;;;1.73;1.17;;;21.50;99.90;;;;;;5011233;28;20535;-49
2021/06/07 09:40:44;;;;;;;1.30;1.20;;;21.40;99.90;;;;;;4999049;28;20454;-49
2021/06/07 09:43:11;;;;;;;1.37;1.27;;;21.40;99.90;;;;;;4990924;28;20459;-51
2021/06/07 09:45:44;;;;;;;1.80;1.20;;;21.30;99.90;;;;;;4993805;28;20457;-52
2021/06/07 09:48:12;;;;;;;1.33;1.20;;;21.70;99.90;;;;;;5011270;28;20473;-49
2021/06/07 09:50:53;;;;;;;1.50;1.40;;;21.90;99.90;;;;;;5011149;28;20529;-50
2021/06/07 09:53:40;;;;;;;1.30;1.20;;;21.90;99.90;;;;;;5010768;28;20939;-50
2021/06/07 09:56:07;;;;;;;1.27;1.17;;;22.00;99.90;;;;;;5010749;28;20851;-51
2021/06/07 09:58:35;;;;;;;1.37;1.23;;;21.90;99.90;;;;;;5011855;28;20487;-50
2021/06/07 10:01:09;;;;;;;1.30;1.20;;;22.10;99.90;;;;;;5007188;28;20948;-50
2021/06/07 10:03:42;;;;;;;1.27;1.17;;;22.50;99.90;;;;;;4995002;28;20482;-51
2021/06/07 10:06:24;;;;;;;2.20;1.20;;;23.40;99.90;;;;;;5000884;28;20460;-50
2021/06/07 10:08:57;;;;;;;1.13;1.07;;;24.40;99.90;;;;;;5014696;28;20961;-50
2021/06/07 10:11:32;;;;;;;1.30;1.20;;;24.70;99.90;;;;;;5014601;28;20538;-51
2021/06/07 10:14:08;;;;;;;1.40;1.30;;;25.00;99.90;;;;;;5014541;28;20539;-50
2021/06/07 10:16:35;;;;;;;1.40;1.30;;;23.50;99.90;;;;;;5014304;28;20535;-50
2021/06/07 10:19:03;;;;;;;1.57;1.47;;;23.00;99.90;;;;;;5014549;28;20485;-50
2021/06/07 10:21:32;;;;;;;1.50;1.40;;;23.10;99.90;;;;;;5014158;28;20899;-50
2021/06/07 10:24:00;;;;;;;1.03;1.03;;;23.00;99.90;;;;;;5014659;28;20966;-49
2021/06/07 10:26:27;;;;;;;2.03;1.10;;;22.60;99.90;;;;;;5013898;28;20469;-49
2021/06/07 10:28:54;;;;;;;1.37;1.27;;;22.70;99.90;;;;;;4995614;28;20509;-50
2021/06/07 10:31:23;;;;;;;2.20;1.30;;;22.20;99.90;;;;;;4994688;28;20505;-49
2021/06/07 10:33:58;;;;;;;4.57;1.70;;;22.30;99.90;;;;;;4994490;28;20998;-50
2021/06/07 10:36:36;;;;;;;1.40;1.30;;;22.60;99.90;;;;;;5000494;28;20465;-49
2021/06/07 10:39:25;;;;;;;1.10;1.10;;;22.90;99.90;;;;;;5013633;28;20543;-49
2021/06/07 10:42:27;;;;;;;1.30;1.20;;;22.80;99.90;;;;;;5040040;22;20945;-57
2021/06/07 10:45:00;;;;;;;1.40;1.30;;;23.30;99.90;;;;;;5025067;28;20448;-57
2021/06/07 10:47:29;;;;;;;1.30;1.20;;;23.90;99.90;;;;;;5027474;28;20460;-57
2021/06/07 10:50:02;;;;;;;1.20;1.20;;;24.10;99.90;;;;;;5023247;28;20453;-57
2021/06/07 10:52:32;;;;;;;1.50;1.40;;;24.20;99.90;;;;;;4997741;28;20449;-57
2021/06/07 10:55:04;;;;;;;2.07;1.60;;;24.30;99.90;;;;;;5003951;28;20449;-56
2021/06/07 10:57:37;;;;;;;1.67;1.30;;;24.00;99.90;;;;;;5013661;28;20457;-56
2021/06/07 11:00:11;;;;;;;1.10;1.10;;;24.00;99.90;;;;;;4995480;28;20483;-56
2021/06/07 11:02:39;;;;;;;1.50;1.40;;;23.80;99.90;;;;;;4994134;28;20453;-57
2021/06/07 11:05:11;;;;;;;1.40;1.30;;;23.80;99.90;;;;;;4994183;28;20447;-56
2021/06/07 11:07:37;;;;;;;1.27;1.17;;;23.70;99.90;;;;;;5009190;28;20472;-56
2021/06/07 11:10:26;;;;;;;1.20;1.20;;;23.90;99.90;;;;;;5012156;28;20446;-56
2021/06/07 11:12:55;;;;;;;1.30;1.20;;;23.50;99.90;;;;;;4993985;28;20454;-56
2021/06/07 11:15:24;;;;;;;2.00;1.23;;;22.90;99.90;;;;;;4994070;28;20450;-56
2021/06/07 11:17:52;;;;;;;1.40;1.30;;;23.30;99.90;;;;;;5010306;28;20951;-56
2021/06/07 11:20:33;;;;;;;1.23;1.17;;;23.70;99.90;;;;;;5011397;28;20509;-57
2021/06/07 11:23:11;;;;;;;1.07;1.07;;;23.60;99.90;;;;;;4993584;28;20940;-56
2021/06/07 11:25:51;;;;;;;1.37;1.27;;;23.90;99.90;;;;;;4993814;28;20454;-57
2021/06/07 11:28:32;;;;;;;1.57;1.00;;;23.90;99.90;;;;;;5003881;28;20831;-57
2021/06/07 11:30:59;;;;;;;1.20;1.10;;;24.00;99.90;;;;;;5012424;28;21307;-57
2021/06/07 11:33:26;;;;;;;1.23;1.23;;;24.20;99.90;;;;;;5012962;28;20504;-56
2021/06/07 11:35:54;;;;;;;2.00;1.30;;;23.50;99.90;;;;;;5012376;28;20449;-57
2021/06/07 11:38:31;;;;;;;1.70;1.60;;;23.30;99.90;;;;;;4993538;28;20481;-56
2021/06/07 11:41:01;;;;;;;1.70;1.60;;;23.00;99.90;;;;;;4993087;28;20482;-56
2021/06/07 11:44:03;;;;;;;1.23;1.13;;;23.00;99.90;;;;;;4993471;28;20454;-56
2021/06/07 11:46:55;;;;;;;1.60;1.50;;;23.40;99.90;;;;;;4998920;28;20449;-57
2021/06/07 11:49:22;;;;;;;1.87;1.77;;;23.50;99.90;;;;;;4996218;28;20450;-56
2021/06/07 11:52:01;;;;;;;3.27;1.43;;;23.40;99.90;;;;;;4998408;28;20475;-56
2021/06/07 11:54:52;;;;;;;1.27;1.20;;;23.50;99.90;;;;;;5011136;28;20453;-57
2021/06/07 11:57:23;;;;;;;2.13;2.03;;;23.80;99.90;;;;;;4994697;28;20517;-56
2021/06/07 11:59:58;;;;;;;1.70;1.60;;;23.80;99.90;;;;;;5012397;28;20567;-57
2021/06/07 12:02:26;;;;;;;1.93;1.83;;;23.50;99.90;;;;;;5001969;28;20532;-57
2021/06/07 12:04:54;;;;;;;1.90;1.70;;;23.50;99.90;;;;;;4993312;28;20933;-56
2021/06/07 12:07:21;;;;;;;2.20;2.10;;;23.50;99.90;;;;;;4992395;28;20858;-56
2021/06/07 12:09:50;;;;;;;2.27;2.17;;;23.40;99.90;;;;;;4992814;28;20933;-56
2021/06/07 12:12:17;;;;;;;1.70;1.60;;;23.30;99.90;;;;;;4992539;28;20489;-56
2021/06/07 12:14:46;;;;;;;2.33;2.23;;;23.20;99.90;;;;;;4994295;28;20807;-56
2021/06/07 12:17:18;;;;;;;2.27;2.17;;;23.00;99.90;;;;;;4992431;28;20953;-57
2021/06/07 12:19:47;;;;;;;2.20;2.10;;;22.90;99.90;;;;;;4992492;28;20485;-56
2021/06/07 12:22:31;;;;;;;1.60;1.50;;;22.40;99.90;;;;;;4991667;28;20497;-58
2021/06/07 12:25:12;;;;;;;2.50;2.30;;;22.40;99.90;;;;;;5000352;28;20458;-57
2021/06/07 12:30:25;;;;;;;3.20;1.80;;;22.10;99.90;;;;;;4993804;28;20465;-56
2021/06/07 12:32:54;;;;;;;1.90;1.80;;;22.00;99.90;;;;;;5001103;28;21014;-56
2021/06/07 12:35:21;;;;;;;1.40;1.30;;;22.10;99.90;;;;;;5011509;28;20898;-55
2021/06/07 12:37:49;;;;;;;1.70;1.60;;;22.00;99.90;;;;;;5012124;28;20453;-56
2021/06/07 12:40:20;;;;;;;1.13;1.07;;;22.30;99.90;;;;;;5011610;28;20482;-56
2021/06/07 12:42:49;;;;;;;1.77;1.30;;;22.30;99.90;;;;;;5012049;28;20544;-55
2021/06/07 12:45:18;;;;;;;1.00;1.00;;;22.40;99.90;;;;;;5002403;28;20455;-57
2021/06/07 12:47:46;;;;;;;1.10;1.10;;;22.50;99.90;;;;;;4992390;28;20453;-56
2021/06/07 12:50:17;;;;;;;1.50;1.30;;;22.40;99.90;;;;;;4992431;28;20453;-56
2021/06/07 12:52:47;;;;;;;1.20;1.10;;;22.50;99.90;;;;;;4992247;28;20458;-56
2021/06/07 12:55:17;;;;;;;1.20;1.10;;;22.60;99.90;;;;;;5003266;28;20844;-57
2021/06/07 12:57:44;;;;;;;1.00;1.00;;;22.80;99.90;;;;;;5011973;28;20548;-57